createdAt,value
2023-01-13T04:34:36.913Z,3.60
2023-01-13T04:38:39.877Z,3.75
2023-01-13T04:42:44.923Z,4.50
2023-01-13T04:46:47.983Z,6.22
2023-01-13T04:50:52.531Z,5.28
2023-01-13T04:54:55.393Z,5.47
2023-01-13T04:58:58.753Z,5.53
2023-01-13T05:03:02.257Z,4.68
2023-01-13T05:07:07.003Z,6.40
2023-01-13T05:11:23.983Z,4.15
2023-01-13T05:16:11.473Z,4.25
2023-01-13T05:20:35.420Z,5.93
2023-01-13T05:25:17.773Z,6.25
2023-01-13T05:29:41.044Z,4.35
2023-01-13T05:34:04.621Z,3.40
2023-01-13T05:38:27.878Z,5.30
2023-01-13T05:43:20.027Z,6.45
2023-01-13T05:47:43.517Z,5.97
2023-01-13T05:52:07.137Z,4.45
2023-01-13T05:56:30.429Z,6.63
2023-01-13T06:01:00.546Z,5.20
2023-01-13T06:05:23.934Z,6.32
2023-01-13T06:09:48.060Z,6.18
2023-01-13T06:14:11.415Z,5.63
2023-01-13T06:18:36.467Z,7.35
2023-01-13T06:23:00.637Z,5.22
2023-01-13T06:27:24.937Z,7.22
2023-01-13T06:31:48.241Z,11.25
2023-01-13T06:36:16.793Z,7.22
2023-01-13T06:40:42.588Z,5.50
2023-01-13T06:45:06.890Z,5.65
2023-01-13T06:49:30.287Z,6.43
2023-01-13T06:53:55.349Z,6.55
2023-01-13T06:58:18.728Z,7.63
2023-01-13T07:02:42.516Z,5.43
2023-01-13T07:07:05.913Z,6.50
2023-01-13T07:11:30.945Z,6.28
2023-01-13T07:15:58.816Z,8.07
2023-01-13T07:20:22.515Z,6.88
2023-01-13T07:24:46.234Z,6.85
2023-01-13T07:29:11.425Z,7.78
2023-01-13T07:33:34.862Z,9.00
2023-01-13T07:37:58.501Z,5.97
2023-01-13T07:42:39.314Z,8.02
2023-01-13T07:47:06.326Z,6.75
2023-01-13T07:51:29.852Z,7.95
2023-01-13T07:55:57.638Z,7.95
2023-01-13T08:00:22.058Z,9.95
2023-01-13T08:04:47.064Z,8.43
2023-01-13T08:09:10.357Z,9.98
2023-01-13T08:13:34.203Z,8.60
2023-01-13T08:17:57.559Z,9.05
2023-01-13T08:22:23.224Z,7.60
2023-01-13T08:26:47.008Z,9.05
2023-01-13T08:31:14.079Z,9.48
2023-01-13T08:35:37.866Z,8.23
2023-01-13T08:40:03.008Z,11.13
2023-01-13T08:44:27.563Z,13.77
2023-01-13T08:48:51.211Z,10.52
2023-01-13T08:53:14.528Z,7.40
2023-01-13T08:57:39.758Z,8.52
2023-01-13T09:02:03.546Z,8.50
2023-01-13T09:06:27.307Z,7.97
2023-01-13T09:10:50.635Z,7.35
2023-01-13T09:15:18.794Z,7.25
2023-01-13T09:19:42.303Z,9.07
2023-01-13T09:24:06.173Z,10.50
2023-01-13T09:28:30.609Z,9.98
2023-01-13T09:33:18.652Z,8.18
2023-01-13T09:37:45.925Z,9.45
2023-01-13T09:42:38.840Z,8.07
2023-01-13T09:47:08.162Z,10.15
2023-01-13T09:51:37.734Z,8.13
2023-01-13T09:56:01.597Z,10.27
2023-01-13T10:00:28.653Z,9.55
2023-01-13T10:05:14.828Z,10.68
2023-01-13T10:09:49.865Z,10.48
2023-01-13T10:14:19.280Z,7.38
2023-01-13T10:18:36.895Z,8.60
2023-01-13T10:23:00.123Z,8.57
2023-01-13T10:27:06.968Z,7.75
2023-01-13T10:31:13.386Z,10.15
2023-01-13T10:35:17.182Z,9.10
2023-01-13T10:39:21.336Z,9.02
2023-01-13T10:43:27.023Z,8.35
2023-01-13T10:47:31.811Z,10.95
2023-01-13T10:51:45.972Z,8.63
2023-01-13T10:56:03.545Z,7.85
2023-01-13T11:00:28.503Z,8.95
2023-01-13T11:04:35.695Z,8.98
2023-01-13T11:08:46.619Z,8.48
2023-01-13T11:12:58.663Z,10.35
2023-01-13T11:17:10.172Z,8.93
2023-01-13T11:21:23.280Z,7.53
2023-01-13T11:25:33.698Z,8.80
2023-01-13T11:29:42.907Z,9.60
2023-01-13T11:33:52.749Z,7.18
2023-01-13T11:38:03.914Z,6.95
2023-01-13T11:42:24.881Z,7.68
2023-01-13T11:46:29.318Z,8.77
2023-01-13T11:50:41.293Z,6.38
2023-01-13T11:55:07.931Z,8.00
2023-01-13T11:59:28.106Z,7.63
2023-01-13T12:03:36.802Z,7.88
2023-01-13T12:07:50.770Z,8.20
2023-01-13T12:12:27.532Z,9.43
2023-01-13T12:16:31.941Z,8.07
2023-01-13T12:20:43.430Z,6.65
2023-01-13T12:24:54.454Z,9.02
2023-01-13T12:29:02.367Z,6.50
2023-01-13T12:33:21.036Z,6.43
2023-01-13T12:37:29.073Z,8.18
2023-01-13T12:42:03.335Z,5.85
2023-01-13T12:46:58.216Z,6.07
2023-01-13T12:51:01.630Z,7.25
2023-01-13T12:55:20.843Z,7.20
2023-01-13T12:59:48.500Z,6.05
2023-01-13T13:04:09.602Z,6.78
2023-01-13T13:08:20.761Z,7.60
2023-01-13T13:13:12.586Z,7.22
2023-01-13T13:17:41.428Z,6.07
2023-01-13T13:22:19.265Z,5.95
2023-01-13T13:26:42.294Z,5.05
2023-01-13T13:30:53.679Z,5.35
2023-01-13T13:35:15.313Z,6.25
2023-01-13T13:39:40.251Z,6.00
2023-01-13T13:44:02.060Z,6.28
2023-01-13T13:48:21.918Z,5.35
2023-01-13T13:52:36.728Z,7.72
2023-01-13T13:56:44.492Z,5.93
2023-01-13T14:00:49.652Z,5.18
2023-01-13T14:04:52.847Z,5.60
2023-01-13T14:08:57.186Z,6.68
2023-01-13T14:13:04.104Z,6.75
2023-01-13T14:17:07.284Z,6.80
2023-01-13T14:21:20.890Z,6.70
2023-01-13T14:25:34.939Z,6.00
2023-01-13T14:29:38.757Z,8.73
2023-01-13T14:33:46.450Z,6.78
2023-01-13T14:37:51.082Z,7.80
2023-01-13T14:41:55.499Z,7.20
2023-01-13T14:46:00.609Z,5.32
2023-01-13T14:50:06.746Z,5.28
2023-01-13T14:54:40.534Z,7.03
2023-01-13T14:58:44.965Z,7.22
2023-01-13T15:03:01.675Z,6.10
2023-01-13T15:07:05.635Z,13.20
2023-01-13T15:11:19.399Z,9.18
2023-01-13T15:15:26.445Z,6.75
2023-01-13T15:19:29.427Z,6.75
2023-01-13T15:23:32.429Z,9.25
2023-01-13T15:27:35.463Z,7.07
2023-01-13T15:31:39.908Z,7.30
2023-01-13T15:35:45.818Z,6.70
2023-01-13T15:39:48.947Z,8.32
2023-01-13T15:44:09.298Z,6.72
2023-01-13T15:48:13.811Z,8.65
2023-01-13T15:52:21.516Z,7.45
2023-01-13T15:56:27.298Z,8.40
2023-01-13T16:00:30.368Z,7.40
2023-01-13T16:04:34.771Z,7.60
2023-01-13T16:08:37.843Z,7.57
2023-01-13T16:12:40.848Z,7.10
2023-01-13T16:16:43.929Z,9.98
2023-01-13T16:20:52.802Z,7.50
2023-01-13T16:24:56.715Z,7.18
2023-01-13T16:28:59.769Z,7.63
2023-01-13T16:33:03.703Z,6.63
2023-01-13T16:37:18.865Z,7.22
2023-01-13T16:41:24.865Z,7.88
2023-01-13T16:45:28.052Z,7.20
2023-01-13T16:49:31.079Z,8.85
2023-01-13T16:53:35.641Z,7.72
2023-01-13T16:57:38.864Z,8.18
2023-01-13T17:01:44.925Z,7.57
2023-01-13T17:05:48.684Z,9.23
2023-01-13T17:09:53.125Z,9.75
2023-01-13T17:13:56.239Z,9.57
2023-01-13T17:17:59.292Z,7.70
2023-01-13T17:22:02.396Z,8.43
2023-01-13T17:26:06.946Z,10.05
2023-01-13T17:30:12.181Z,7.93
2023-01-13T17:34:15.742Z,7.90
2023-01-13T17:38:18.735Z,7.03
2023-01-13T17:42:25.033Z,7.57
2023-01-13T17:46:28.131Z,10.02
2023-01-13T17:50:34.083Z,12.05
2023-01-13T17:54:37.264Z,10.20
2023-01-13T17:58:42.588Z,9.35
2023-01-13T18:02:45.682Z,8.88
2023-01-13T18:06:49.523Z,10.52
2023-01-13T18:10:53.127Z,8.52
2023-01-13T18:14:57.511Z,8.43
2023-01-13T18:19:15.374Z,9.70
2023-01-13T18:23:37.707Z,7.88
2023-01-13T18:27:41.709Z,10.00
2023-01-13T18:31:46.259Z,10.98
2023-01-13T18:35:49.219Z,9.20
2023-01-13T18:39:52.265Z,12.57
2023-01-13T18:43:55.357Z,10.75
2023-01-13T18:48:01.760Z,10.52
2023-01-13T18:52:05.136Z,11.23
2023-01-13T18:56:11.600Z,12.77
2023-01-13T19:00:17.758Z,9.05
2023-01-13T19:04:22.411Z,9.55
2023-01-13T19:08:25.429Z,9.90
2023-01-13T19:12:31.080Z,12.00
2023-01-13T19:16:34.144Z,11.82
2023-01-13T19:20:38.863Z,11.48
2023-01-13T19:24:42.702Z,9.18
2023-01-13T19:28:45.715Z,11.43
2023-01-13T19:32:48.713Z,11.75
2023-01-13T19:36:54.152Z,12.27
2023-01-13T19:40:58.479Z,12.38
2023-01-13T19:45:19.072Z,11.80
2023-01-13T19:49:22.095Z,11.70
2023-01-13T19:53:26.523Z,12.32
2023-01-13T19:57:29.812Z,11.45
2023-01-13T20:01:36.276Z,10.23
2023-01-13T20:05:39.451Z,10.80
2023-01-13T20:09:45.277Z,11.25
2023-01-13T20:13:48.346Z,7.90
2023-01-13T20:17:51.491Z,5.78
2023-01-13T20:21:54.507Z,2.30
2023-01-13T20:25:59.698Z,1.27
2023-01-13T20:30:02.687Z,0.88
2023-01-13T20:34:06.237Z,1.10
2023-01-13T20:38:09.277Z,0.50
2023-01-13T20:42:39.645Z,0.60
2023-01-13T20:46:44.455Z,1.98
2023-01-13T20:50:53.253Z,0.52
2023-01-13T20:54:56.629Z,0.93
2023-01-13T20:59:01.264Z,2.38
2023-01-13T21:03:04.587Z,1.35
2023-01-13T21:07:07.959Z,1.73
2023-01-13T21:11:14.866Z,0.75
2023-01-13T21:15:19.724Z,1.75
2023-01-13T21:19:22.758Z,1.20
2023-01-13T21:23:25.806Z,1.20
2023-01-13T21:27:28.914Z,1.75
2023-01-13T21:31:33.487Z,0.70
2023-01-13T21:35:39.301Z,0.40
2023-01-13T21:39:42.942Z,1.20
2023-01-13T21:44:08.507Z,1.48
2023-01-13T21:48:13.143Z,2.67
2023-01-13T21:52:16.781Z,0.85
2023-01-13T21:56:19.828Z,2.10
2023-01-13T22:00:24.663Z,1.05
2023-01-13T22:04:29.200Z,1.83
2023-01-13T22:08:35.802Z,0.90
2023-01-13T22:12:39.478Z,1.85
2023-01-13T22:16:49.452Z,1.85
2023-01-13T22:20:53.908Z,0.57
2023-01-13T22:24:57.092Z,0.85
2023-01-13T22:29:02.247Z,1.75
2023-01-13T22:33:05.293Z,0.50
2023-01-13T22:37:09.881Z,0.50
2023-01-13T22:41:13.056Z,0.52
2023-01-13T22:45:16.293Z,0.43
2023-01-13T22:49:20.316Z,2.30
2023-01-13T22:53:24.797Z,0.52
2023-01-13T22:57:35.580Z,1.15
2023-01-13T23:01:42.194Z,0.60
2023-01-13T23:05:46.018Z,0.57
2023-01-13T23:09:50.579Z,0.80
2023-01-13T23:13:59.228Z,0.93
2023-01-13T23:18:03.265Z,1.15
2023-01-13T23:22:06.267Z,1.10
2023-01-13T23:26:11.091Z,1.95
2023-01-13T23:30:14.255Z,0.80
2023-01-13T23:34:17.343Z,0.70
2023-01-13T23:38:20.326Z,0.68
2023-01-13T23:42:24.700Z,1.42
2023-01-13T23:46:29.063Z,1.90
2023-01-13T23:50:32.174Z,0.95
2023-01-13T23:54:35.188Z,1.05
2023-01-13T23:58:39.646Z,1.75
